Time;durP1;ratioP1;P1;durP2;ratioP2;P2;SDS_P1;SDS_P2;PMS_P1;PMS_P2;Temp;Humidity;BMP_temperature;BMP_pressure;BME280_temperature;BME280_humidity;BME280_pressure;Samples;Min_cycle;Max_cycle;Signal;HPM_P1;HPM_P2
2022/04/02 00:00:21;;;;;;;0.80;0.80;;;;;;;17.22;38.76;101538.97;5144350;28;20065;-60
2022/04/02 00:02:46;;;;;;;1.00;0.90;;;;;;;17.20;38.76;101535.56;5144193;28;20486;-60
2022/04/02 00:05:12;;;;;;;0.82;0.82;;;;;;;17.20;38.75;101535.56;5143966;28;20476;-60
2022/04/02 00:07:37;;;;;;;1.33;1.10;;;;;;;17.19;38.75;101539.25;5144309;28;20027;-61
2022/04/02 00:10:05;;;;;;;1.05;1.00;;;;;;;17.18;38.75;101532.19;5143042;28;20114;-60
2022/04/02 00:12:31;;;;;;;1.20;1.10;;;;;;;17.17;38.71;101535.88;5145240;27;20030;-61
2022/04/02 00:14:56;;;;;;;0.90;0.90;;;;;;;17.15;38.51;101532.47;5129716;27;20027;-61
2022/04/02 00:17:21;;;;;;;0.95;0.95;;;;;;;17.15;38.67;101537.84;5129993;27;20455;-60
2022/04/02 00:19:47;;;;;;;1.15;1.05;;;;;;;17.12;38.64;101535.41;5148247;27;20386;-60
2022/04/02 00:22:12;;;;;;;1.10;1.00;;;;;;;17.12;38.73;101540.78;5147893;27;20087;-60
2022/04/02 00:24:38;;;;;;;0.80;0.80;;;;;;;17.12;38.73;101540.78;5147339;27;20027;-61
2022/04/02 00:27:03;;;;;;;1.33;1.27;;;;;;;17.10;38.73;101546.31;5148176;27;20026;-61
2022/04/02 00:29:29;;;;;;;0.90;0.90;;;;;;;17.10;38.88;101537.41;5148013;27;20042;-61
2022/04/02 00:31:54;;;;;;;1.10;1.00;;;;;;;17.05;38.55;101548.59;5147985;27;20054;-63
2022/04/02 00:34:19;;;;;;;2.35;1.00;;;;;;;17.07;38.74;101553.81;5147771;27;20057;-61
2022/04/02 00:36:45;;;;;;;1.20;1.10;;;;;;;17.06;38.65;101542.22;5147591;27;20070;-61
2022/04/02 00:39:10;;;;;;;1.15;1.05;;;;;;;17.04;38.74;101552.28;5147010;27;20031;-61
2022/04/02 00:41:35;;;;;;;0.90;0.90;;;;;;;17.02;38.69;101542.66;5147376;27;20027;-60
2022/04/02 00:44:11;;;;;;;1.05;1.00;;;;;;;17.04;38.59;101543.38;5147744;27;20110;-62
2022/04/02 00:46:38;;;;;;;1.27;1.00;;;;;;;17.02;38.67;101551.53;5147989;27;20027;-61
2022/04/02 00:49:05;;;;;;;1.00;0.90;;;;;;;17.01;38.96;101552.53;5147558;27;20023;-60
2022/04/02 00:51:31;;;;;;;1.42;1.13;;;;;;;16.99;38.58;101549.13;5147633;27;20019;-60
2022/04/02 00:53:57;;;;;;;0.85;0.85;;;;;;;16.99;38.40;101549.13;5133000;27;20038;-61
2022/04/02 00:56:22;;;;;;;1.10;1.00;;;;;;;16.98;38.53;101547.44;5147162;27;20660;-61
2022/04/02 00:58:48;;;;;;;0.80;0.80;;;;;;;16.96;38.49;101544.91;5147404;27;20024;-60
2022/04/02 01:01:14;;;;;;;1.23;1.20;;;;;;;16.97;38.63;101548.44;5147472;27;20030;-60
2022/04/02 01:03:40;;;;;;;1.27;1.17;;;;;;;16.94;38.53;101554.09;5147295;27;20034;-61
2022/04/02 01:06:05;;;;;;;1.15;1.13;;;;;;;16.95;38.57;101556.66;5141908;27;20015;-61
2022/04/02 01:08:30;;;;;;;0.90;0.90;;;;;;;16.93;38.51;101553.25;5146683;27;20019;-60
2022/04/02 01:10:57;;;;;;;1.20;1.00;;;;;;;16.91;38.62;101549.84;5146941;27;20068;-61
2022/04/02 01:13:23;;;;;;;1.02;1.00;;;;;;;16.93;38.63;101558.59;5147239;27;20118;-61
2022/04/02 01:15:48;;;;;;;1.10;1.10;;;;;;;16.91;38.46;101554.38;5128743;27;20054;-61
2022/04/02 01:18:13;;;;;;;0.70;0.70;;;;;;;16.91;38.64;101557.91;5147095;27;20095;-62
2022/04/02 01:20:39;;;;;;;0.80;0.80;;;;;;;16.91;38.68;101562.44;5146606;27;20096;-61
2022/04/02 01:23:04;;;;;;;0.95;0.90;;;;;;;16.90;38.64;101555.34;5119277;27;20123;-61
2022/04/02 01:25:32;;;;;;;0.88;0.88;;;;;;;16.88;38.69;101550.13;5145623;27;20045;-62
2022/04/02 01:27:59;;;;;;;0.90;0.90;;;;;;;16.88;38.51;101560.88;5146664;27;20031;-60
2022/04/02 01:30:24;;;;;;;1.05;1.00;;;;;;;16.88;39.30;101563.56;5146957;27;20026;-61
2022/04/02 01:32:49;;;;;;;0.80;0.80;;;;;;;16.86;38.63;101560.16;5146729;27;20031;-60
2022/04/02 01:35:14;;;;;;;0.93;0.90;;;;;;;16.85;38.67;101558.47;5146477;27;20047;-61
2022/04/02 01:37:40;;;;;;;1.27;1.05;;;;;;;16.85;38.89;101561.13;5146804;27;20035;-61
2022/04/02 01:40:06;;;;;;;0.90;0.90;;;;;;;16.85;38.62;101569.19;5145774;27;20027;-61
2022/04/02 01:42:32;;;;;;;1.00;0.93;;;;;;;16.84;38.66;101570.19;5146729;27;20019;-62
2022/04/02 01:44:57;;;;;;;0.95;0.95;;;;;;;16.84;38.65;101569.34;5146445;27;20026;-62
2022/04/02 01:47:23;;;;;;;1.00;1.00;;;;;;;16.81;38.74;101567.78;5146528;27;20031;-62
2022/04/02 01:49:48;;;;;;;1.15;1.10;;;;;;;16.83;38.66;101571.19;5146168;27;20498;-64
2022/04/02 01:52:16;;;;;;;1.00;0.98;;;;;;;16.83;38.58;101579.25;5146030;27;20027;-60
2022/04/02 01:54:42;;;;;;;1.02;0.93;;;;;;;16.84;38.67;101580.94;5145380;27;20035;-61
2022/04/02 01:57:07;;;;;;;0.90;0.90;;;;;;;16.82;38.52;101574.88;5146532;27;20016;-61
2022/04/02 01:59:33;;;;;;;1.13;1.02;;;;;;;16.81;38.61;101572.31;5146068;27;20046;-61
2022/04/02 02:01:58;;;;;;;1.00;1.00;;;;;;;16.84;38.69;101580.94;5146191;27;20070;-61
2022/04/02 02:04:24;;;;;;;1.00;0.85;;;;;;;16.84;38.48;101583.63;5127419;27;20069;-60
2022/04/02 02:06:49;;;;;;;0.93;0.90;;;;;;;16.84;38.86;101582.78;5145999;27;20105;-59
2022/04/02 02:09:14;;;;;;;0.90;0.90;;;;;;;16.84;38.61;101580.94;5145548;27;20031;-60
2022/04/02 02:11:41;;;;;;;1.08;0.98;;;;;;;16.86;38.52;101583.47;5145613;27;20086;-61
2022/04/02 02:14:07;;;;;;;1.13;1.00;;;;;;;16.87;38.61;101593.25;5145950;27;20027;-60
2022/04/02 02:16:32;;;;;;;1.23;1.13;;;;;;;16.85;38.52;101590.69;5127897;27;20607;-63
2022/04/02 02:18:58;;;;;;;0.90;0.90;;;;;;;16.87;38.54;101586.03;5145962;27;20492;-61
2022/04/02 02:21:23;;;;;;;0.90;0.90;;;;;;;16.88;38.41;101589.56;5145297;27;20156;-62
2022/04/02 02:23:48;;;;;;;1.10;1.00;;;;;;;16.89;38.58;101592.09;5145161;27;20027;-60
2022/04/02 02:26:14;;;;;;;1.05;1.05;;;;;;;16.90;38.46;101592.94;5145163;27;20034;-61
2022/04/02 02:28:41;;;;;;;1.02;1.02;;;;;;;16.90;38.36;101593.78;5145717;27;20045;-61
2022/04/02 02:31:06;;;;;;;0.82;0.82;;;;;;;16.85;38.40;101588.00;5145384;27;20050;-62
2022/04/02 02:36:17;;;;;;;1.40;1.30;;;;;;;16.94;38.35;101594.38;5144148;27;20062;-61
2022/04/02 02:38:43;;;;;;;1.25;1.00;;;;;;;16.94;38.31;101594.38;5144641;27;20080;-60
2022/04/02 02:41:10;;;;;;;1.30;1.10;;;;;;;16.96;38.24;101603.16;5145341;27;20027;-61
2022/04/02 02:43:35;;;;;;;1.08;0.95;;;;;;;16.96;38.02;101601.31;5126894;27;20080;-61
2022/04/02 02:46:00;;;;;;;1.63;0.93;;;;;;;16.96;38.23;101589.72;5145100;27;20023;-61
2022/04/02 02:48:25;;;;;;;0.85;0.85;;;;;;;16.97;38.15;101608.38;5145384;27;20019;-60
2022/04/02 02:50:51;;;;;;;1.10;1.10;;;;;;;16.96;37.99;101609.38;5144960;27;20045;-61
2022/04/02 02:53:16;;;;;;;1.35;1.00;;;;;;;17.01;38.09;101608.13;5144946;27;20026;-60
2022/04/02 02:55:44;;;;;;;1.10;1.10;;;;;;;17.01;38.07;101616.16;5144259;27;20106;-61
2022/04/02 02:58:09;;;;;;;0.93;0.93;;;;;;;17.02;38.21;101609.81;5145077;27;20027;-60
2022/04/02 03:00:34;;;;;;;0.93;0.93;;;;;;;17.03;37.93;101604.28;5144002;27;20016;-60
2022/04/02 03:03:00;;;;;;;1.20;1.10;;;;;;;17.04;37.97;101611.38;5144837;27;20023;-61
2022/04/02 03:05:25;;;;;;;1.17;1.00;;;;;;;17.05;37.98;101614.91;5144804;27;20026;-60
2022/04/02 03:07:51;;;;;;;0.88;0.88;;;;;;;17.06;37.96;101604.00;5145193;27;20062;-60
2022/04/02 03:10:23;;;;;;;1.30;1.20;;;;;;;17.05;37.98;101598.78;5144022;27;20022;-61
2022/04/02 03:12:49;;;;;;;1.02;1.00;;;;;;;17.09;37.80;101609.13;5144303;27;20037;-60
2022/04/02 03:15:18;;;;;;;1.00;1.00;;;;;;;17.10;37.89;101612.66;5144374;27;20122;-61
2022/04/02 03:17:44;;;;;;;0.90;0.90;;;;;;;17.10;37.81;101613.50;5109647;27;20071;-61
2022/04/02 03:20:14;;;;;;;0.90;0.85;;;;;;;17.12;37.79;101614.22;5144360;27;20023;-60
2022/04/02 03:22:40;;;;;;;0.80;0.80;;;;;;;17.12;37.69;101614.22;5144587;27;20026;-60
2022/04/02 03:25:18;;;;;;;0.90;0.90;;;;;;;17.15;37.67;101615.75;5143855;27;20067;-62
2022/04/02 03:27:44;;;;;;;1.02;1.00;;;;;;;17.14;37.67;101620.28;5144757;27;20039;-61
2022/04/02 03:30:10;;;;;;;1.85;1.02;;;;;;;17.15;37.58;101613.91;5144574;27;20132;-61
2022/04/02 03:32:36;;;;;;;1.98;0.95;;;;;;;17.18;37.57;101618.19;5144585;27;20056;-61
2022/04/02 03:35:03;;;;;;;0.73;0.73;;;;;;;17.18;37.54;101623.53;5125875;27;20051;-61
2022/04/02 03:37:30;;;;;;;1.23;1.00;;;;;;;17.17;37.39;101619.16;5144487;27;20039;-61
2022/04/02 03:39:56;;;;;;;1.08;1.00;;;;;;;17.19;37.58;101618.03;5125176;27;20051;-61
2022/04/02 03:42:22;;;;;;;1.42;0.90;;;;;;;17.17;37.58;101609.25;5143678;27;20051;-60
2022/04/02 03:44:48;;;;;;;1.55;1.00;;;;;;;17.22;37.57;101624.97;5135639;28;20100;-61
2022/04/02 03:47:15;;;;;;;1.10;1.00;;;;;;;17.23;37.50;101615.91;5112608;28;20114;-61
2022/04/02 03:49:44;;;;;;;2.03;1.02;;;;;;;17.25;37.51;101624.69;5137769;28;20023;-61
2022/04/02 03:52:10;;;;;;;1.00;1.00;;;;;;;17.27;37.54;101622.69;5140473;28;20027;-61
2022/04/02 03:54:36;;;;;;;0.82;0.82;;;;;;;17.26;37.49;101626.38;5142753;28;20075;-61
2022/04/02 03:57:03;;;;;;;0.82;0.82;;;;;;;17.29;37.29;101626.13;5138336;28;20046;-61
2022/04/02 03:59:28;;;;;;;0.95;0.90;;;;;;;17.31;37.33;101624.13;5135127;28;20533;-61
2022/04/02 04:01:53;;;;;;;0.98;0.90;;;;;;;17.31;37.37;101626.81;5143797;28;20023;-61
2022/04/02 04:04:19;;;;;;;0.82;0.82;;;;;;;17.32;37.12;101636.56;5141039;28;20049;-61
2022/04/02 04:06:44;;;;;;;0.98;0.90;;;;;;;17.33;37.27;101634.72;5143352;28;20018;-61
2022/04/02 04:09:10;;;;;;;0.93;0.90;;;;;;;17.35;37.40;101638.97;5143177;28;20015;-61
2022/04/02 04:11:35;;;;;;;1.25;0.95;;;;;;;17.35;37.04;101632.75;5137292;28;20019;-61
2022/04/02 04:14:00;;;;;;;1.00;0.90;;;;;;;17.37;37.37;101645.03;5143789;28;20434;-61
2022/04/02 04:16:25;;;;;;;1.10;0.80;;;;;;;17.39;37.15;101644.94;5140518;28;20639;-61
2022/04/02 04:18:51;;;;;;;0.90;0.90;;;;;;;17.40;37.19;101639.41;5138518;28;20039;-61
2022/04/02 04:21:16;;;;;;;1.00;0.90;;;;;;;17.41;37.15;101638.41;5134754;28;20020;-61
2022/04/02 04:23:42;;;;;;;0.90;0.90;;;;;;;17.43;37.08;101640.97;5139205;28;20075;-61
2022/04/02 04:26:08;;;;;;;1.10;1.00;;;;;;;17.45;37.07;101652.41;5123059;28;20109;-61
2022/04/02 04:28:33;;;;;;;0.80;0.80;;;;;;;17.45;37.20;101649.72;5123437;28;20040;-61
2022/04/02 04:30:58;;;;;;;1.20;0.98;;;;;;;17.47;37.18;101650.44;5131947;28;20065;-61
2022/04/02 04:33:24;;;;;;;1.17;1.00;;;;;;;17.46;37.07;101649.59;5131743;28;20079;-61
2022/04/02 04:35:49;;;;;;;1.13;1.02;;;;;;;17.48;37.12;101654.81;5143174;28;20028;-61
2022/04/02 04:38:14;;;;;;;1.33;0.80;;;;;;;17.48;37.29;101661.06;5140401;28;20379;-60
2022/04/02 04:40:39;;;;;;;2.35;0.80;;;;;;;17.51;37.06;101667.16;5139776;28;20024;-61
2022/04/02 04:43:07;;;;;;;0.90;0.90;;;;;;;17.48;37.06;101669.13;5137239;28;20049;-62
2022/04/02 04:45:32;;;;;;;1.10;0.90;;;;;;;17.52;36.99;101672.38;5142024;28;20015;-61
2022/04/02 04:47:59;;;;;;;0.82;0.82;;;;;;;17.52;37.10;101671.53;5113222;28;20102;-60
2022/04/02 04:50:24;;;;;;;1.65;1.00;;;;;;;17.54;37.14;101674.91;5124378;28;20432;-61
2022/04/02 04:52:49;;;;;;;2.05;1.17;;;;;;;17.54;37.15;101669.53;5139521;28;20053;-62
2022/04/02 04:55:14;;;;;;;1.10;1.00;;;;;;;17.57;37.38;101666.56;5136222;28;20023;-62
2022/04/02 04:57:40;;;;;;;2.08;0.98;;;;;;;17.58;37.25;101669.13;5124522;28;20027;-60
2022/04/02 05:00:05;;;;;;;0.80;0.80;;;;;;;17.60;37.09;101671.69;5139380;27;20027;-61
2022/04/02 05:02:31;;;;;;;1.23;0.85;;;;;;;17.66;36.88;101673.78;5146910;27;20480;-60
2022/04/02 05:04:56;;;;;;;0.90;0.90;;;;;;;17.68;37.01;101679.88;5142553;27;20011;-60
2022/04/02 05:07:22;;;;;;;1.08;0.88;;;;;;;17.70;37.07;101684.13;5139128;27;20497;-60
2022/04/02 05:09:47;;;;;;;0.82;0.80;;;;;;;17.74;37.12;101682.03;5143966;27;20023;-60
2022/04/02 05:12:13;;;;;;;1.10;1.00;;;;;;;17.77;36.91;101684.44;5140963;27;20027;-60
2022/04/02 05:14:38;;;;;;;0.63;0.63;;;;;;;17.79;37.08;101684.28;5144006;27;20023;-60
2022/04/02 05:17:04;;;;;;;1.42;0.90;;;;;;;17.79;36.97;101693.22;5146482;27;20102;-60
2022/04/02 05:19:29;;;;;;;0.95;0.75;;;;;;;17.82;37.11;101684.00;5143504;27;20027;-60
2022/04/02 05:21:55;;;;;;;0.80;0.80;;;;;;;17.84;37.04;101688.28;5143891;27;20030;-60
2022/04/02 05:24:20;;;;;;;0.80;0.80;;;;;;;17.86;36.89;101697.03;5140274;27;20031;-61
2022/04/02 05:26:47;;;;;;;0.73;0.73;;;;;;;17.87;36.86;101690.66;5140548;27;20471;-60
2022/04/02 05:29:13;;;;;;;0.80;0.80;;;;;;;17.85;36.84;101686.44;5146442;27;20033;-60
2022/04/02 05:31:41;;;;;;;0.80;0.80;;;;;;;17.91;37.00;101697.44;5146577;27;20038;-60
2022/04/02 05:34:07;;;;;;;1.93;0.80;;;;;;;17.92;36.72;101693.75;5146606;27;20383;-60
2022/04/02 05:36:33;;;;;;;1.00;0.90;;;;;;;17.95;36.75;101708.78;5146124;27;20554;-60
2022/04/02 05:38:58;;;;;;;0.80;0.80;;;;;;;17.96;36.74;101705.09;5142010;27;20596;-60
2022/04/02 05:41:23;;;;;;;1.05;0.70;;;;;;;17.96;36.59;101705.09;5141350;27;20019;-60
2022/04/02 05:43:49;;;;;;;1.05;0.80;;;;;;;17.95;36.70;101706.09;5140583;27;20023;-61
2022/04/02 05:46:14;;;;;;;1.35;1.08;;;;;;;17.99;36.66;101713.72;5139993;27;20025;-60
2022/04/02 05:48:40;;;;;;;0.85;0.80;;;;;;;18.01;36.58;101715.41;5146118;27;20019;-60
2022/04/02 05:51:05;;;;;;;0.70;0.70;;;;;;;18.01;36.54;101716.31;5146090;27;20043;-60
2022/04/02 05:53:30;;;;;;;0.82;0.80;;;;;;;18.03;36.29;101722.38;5145526;27;20046;-60
2022/04/02 05:55:56;;;;;;;1.13;0.80;;;;;;;18.05;36.68;101727.59;5142641;27;20176;-60
2022/04/02 05:58:21;;;;;;;1.73;1.00;;;;;;;18.07;36.72;101731.88;5145952;27;20026;-61
2022/04/02 06:00:47;;;;;;;1.00;0.88;;;;;;;18.08;36.53;101732.69;5143115;27;20090;-61
2022/04/02 06:03:15;;;;;;;0.95;0.90;;;;;;;18.09;36.32;101729.00;5146223;27;20027;-61
2022/04/02 06:05:40;;;;;;;0.73;0.73;;;;;;;18.11;36.31;101735.13;5145915;27;20046;-61
2022/04/02 06:08:06;;;;;;;0.80;0.80;;;;;;;18.12;36.41;101740.34;5145825;27;20027;-61
2022/04/02 06:10:31;;;;;;;1.80;0.95;;;;;;;18.11;36.43;101737.81;5145362;27;20030;-61
2022/04/02 06:12:56;;;;;;;0.80;0.80;;;;;;;18.14;36.55;101741.06;5145730;27;20037;-61
2022/04/02 06:15:24;;;;;;;0.95;0.95;;;;;;;18.15;36.35;101741.91;5143026;27;20277;-61
2022/04/02 06:17:49;;;;;;;1.90;0.85;;;;;;;18.15;36.36;101740.06;5136304;27;20042;-60
2022/04/02 06:20:15;;;;;;;1.30;1.20;;;;;;;18.16;36.48;101746.31;5143242;27;20019;-61
2022/04/02 06:22:41;;;;;;;0.90;0.80;;;;;;;18.16;36.36;101751.69;5145138;27;20026;-61
2022/04/02 06:25:06;;;;;;;0.93;0.75;;;;;;;18.16;36.37;101755.22;5135961;27;20023;-61
2022/04/02 06:27:31;;;;;;;1.60;1.00;;;;;;;18.16;36.46;101754.38;5145654;27;20014;-61
2022/04/02 06:29:58;;;;;;;0.85;0.70;;;;;;;18.11;36.32;101744.03;5137421;27;20033;-62
2022/04/02 06:32:24;;;;;;;0.70;0.70;;;;;;;18.18;36.28;101764.00;5133888;27;20015;-61
2022/04/02 06:34:49;;;;;;;0.85;0.70;;;;;;;18.19;36.51;101771.09;5138994;27;20083;-60
2022/04/02 06:37:14;;;;;;;0.90;0.80;;;;;;;18.20;36.55;101771.94;5145061;27;20052;-59
2022/04/02 06:39:40;;;;;;;1.20;0.80;;;;;;;18.21;36.50;101765.56;5123030;27;20035;-61
2022/04/02 06:42:05;;;;;;;1.75;0.90;;;;;;;18.22;36.41;101767.25;5145452;27;20056;-60
2022/04/02 06:44:30;;;;;;;1.23;0.90;;;;;;;18.23;36.51;101769.81;5145354;27;20026;-60
2022/04/02 06:47:00;;;;;;;0.90;0.90;;;;;;;18.23;36.14;101769.81;5145281;27;20015;-60
2022/04/02 06:49:25;;;;;;;0.85;0.75;;;;;;;18.23;36.43;101777.03;5145242;27;20506;-60
2022/04/02 06:51:50;;;;;;;0.98;0.88;;;;;;;18.24;36.36;101782.28;5144561;27;20051;-62
2022/04/02 06:54:15;;;;;;;1.55;0.80;;;;;;;18.25;36.30;101780.44;5144649;27;20065;-60
2022/04/02 06:56:42;;;;;;;0.77;0.77;;;;;;;18.26;36.07;101784.81;5144698;27;20031;-60
2022/04/02 06:59:09;;;;;;;0.70;0.70;;;;;;;18.27;36.48;101785.69;5145059;27;20019;-60
2022/04/02 07:01:34;;;;;;;1.17;0.82;;;;;;;18.29;36.19;101791.75;5144854;27;20651;-61
2022/04/02 07:03:59;;;;;;;0.85;0.80;;;;;;;18.29;36.24;101781.84;5145029;27;20019;-61
2022/04/02 07:06:25;;;;;;;1.88;0.77;;;;;;;18.31;36.05;101787.94;5139534;27;20015;-60
2022/04/02 07:08:50;;;;;;;0.63;0.60;;;;;;;18.33;36.34;101793.19;5144390;27;20038;-60
2022/04/02 07:11:15;;;;;;;1.17;0.80;;;;;;;18.34;36.21;101794.88;5144571;27;20023;-61
2022/04/02 07:13:40;;;;;;;0.95;0.85;;;;;;;18.35;36.20;101792.06;5144801;27;20054;-61
2022/04/02 07:16:06;;;;;;;0.88;0.80;;;;;;;18.37;36.12;101794.59;5144779;27;20090;-61
2022/04/02 07:18:32;;;;;;;1.05;0.80;;;;;;;18.38;35.94;101796.28;5126051;27;20026;-61
2022/04/02 07:20:58;;;;;;;0.95;0.80;;;;;;;18.40;35.72;101805.94;5144095;27;20054;-61
2022/04/02 07:23:24;;;;;;;0.80;0.80;;;;;;;18.43;35.92;101811.00;5125620;27;20027;-61
2022/04/02 07:25:49;;;;;;;0.82;0.80;;;;;;;18.45;35.89;101805.50;5143594;27;20027;-60
2022/04/02 07:28:15;;;;;;;0.95;0.80;;;;;;;18.46;36.08;101808.03;5144674;27;20503;-61
2022/04/02 07:30:40;;;;;;;0.93;0.80;;;;;;;18.48;35.99;101806.06;5144543;27;20019;-61
2022/04/02 07:33:06;;;;;;;1.13;1.02;;;;;;;18.51;36.11;101804.06;5144375;27;20027;-61
2022/04/02 07:35:41;;;;;;;0.75;0.75;;;;;;;18.54;35.71;101811.84;5144150;27;20043;-61
2022/04/02 07:38:22;;;;;;;1.33;0.77;;;;;;;18.54;36.05;101818.09;5123484;27;20023;-60
2022/04/02 07:41:01;;;;;;;0.98;0.70;;;;;;;18.57;35.99;101820.50;5141462;27;20103;-61
2022/04/02 07:43:54;;;;;;;0.70;0.70;;;;;;;18.60;35.98;101822.03;5123736;27;20027;-62
2022/04/02 07:46:24;;;;;;;1.08;0.80;;;;;;;18.59;35.86;101818.50;5135351;28;20023;-59
2022/04/02 07:48:49;;;;;;;0.80;0.80;;;;;;;18.60;35.78;101827.44;5125552;28;20029;-59
2022/04/02 07:51:16;;;;;;;0.63;0.60;;;;;;;18.65;35.71;101833.25;5144158;28;20060;-59
2022/04/02 07:53:47;;;;;;;0.70;0.70;;;;;;;18.71;35.74;101833.53;5143819;28;20034;-58
2022/04/02 07:56:25;;;;;;;1.30;0.77;;;;;;;18.76;35.55;101832.25;5143914;28;20015;-60
2022/04/02 07:59:02;;;;;;;1.15;0.85;;;;;;;18.81;35.68;101843.44;5125680;28;20047;-59
2022/04/02 08:01:28;;;;;;;1.00;0.93;;;;;;;18.82;35.53;101845.13;5125806;28;20020;-60
2022/04/02 08:03:54;;;;;;;0.70;0.68;;;;;;;18.84;35.67;101846.69;5144207;28;20116;-60
2022/04/02 08:06:19;;;;;;;0.70;0.70;;;;;;;18.86;35.46;101850.13;5143524;28;20034;-59
2022/04/02 08:08:45;;;;;;;0.75;0.65;;;;;;;18.86;35.60;101847.44;5143384;28;20031;-58
2022/04/02 08:11:11;;;;;;;1.35;0.80;;;;;;;18.89;35.66;101849.81;5143869;28;20092;-59
2022/04/02 08:13:41;;;;;;;0.90;0.60;;;;;;;18.89;35.49;101852.50;5144182;28;20090;-59
2022/04/02 08:16:08;;;;;;;1.00;0.80;;;;;;;18.91;35.33;101847.84;5126074;28;20019;-60
2022/04/02 08:18:33;;;;;;;0.60;0.60;;;;;;;18.92;35.56;101859.44;5143976;28;20031;-58
2022/04/02 08:20:59;;;;;;;0.60;0.60;;;;;;;18.92;35.29;101857.59;5144064;28;20027;-59
2022/04/02 08:23:24;;;;;;;1.15;0.68;;;;;;;18.92;35.44;101856.75;5143991;28;20024;-60
2022/04/02 08:26:09;;;;;;;0.65;0.65;;;;;;;18.97;35.33;101868.78;5143131;28;20031;-60
2022/04/02 08:28:49;;;;;;;1.95;1.10;;;;;;;18.96;35.40;101864.41;5144102;28;20027;-58
2022/04/02 08:31:27;;;;;;;0.70;0.70;;;;;;;18.98;35.27;101869.63;5144300;28;20023;-59
2022/04/02 08:34:04;;;;;;;0.85;0.80;;;;;;;18.99;35.14;101865.97;5143781;27;20035;-59
2022/04/02 08:36:40;;;;;;;0.70;0.70;;;;;;;19.01;35.21;101863.13;5147669;27;20040;-58
2022/04/02 08:39:36;;;;;;;0.85;0.75;;;;;;;19.00;35.35;101862.28;5128378;27;20050;-59
2022/04/02 08:42:36;;;;;;;0.80;0.75;;;;;;;19.02;35.26;101862.97;5147853;27;20031;-59
2022/04/02 08:45:03;;;;;;;1.17;0.70;;;;;;;19.02;35.32;101864.81;5129251;27;20019;-59
2022/04/02 08:47:29;;;;;;;0.65;0.65;;;;;;;19.03;35.15;101864.69;5147975;27;20097;-59
2022/04/02 08:50:07;;;;;;;0.70;0.70;;;;;;;19.06;35.36;101874.31;5147290;27;20475;-59
2022/04/02 08:52:51;;;;;;;0.90;0.70;;;;;;;19.06;35.23;101872.47;5146601;27;20030;-60
2022/04/02 08:55:18;;;;;;;0.80;0.80;;;;;;;19.09;35.17;101871.31;5146434;27;20095;-60
2022/04/02 08:57:52;;;;;;;0.77;0.70;;;;;;;19.10;35.16;101875.72;5147791;27;20038;-59
2022/04/02 09:00:23;;;;;;;1.05;0.73;;;;;;;19.12;35.08;101868.34;5147421;27;20038;-59
2022/04/02 09:02:54;;;;;;;1.00;0.90;;;;;;;19.12;35.09;101874.59;5147495;27;20024;-60
2022/04/02 09:05:41;;;;;;;0.65;0.65;;;;;;;19.15;35.15;101887.75;5147048;27;20052;-59
2022/04/02 09:08:38;;;;;;;0.70;0.70;;;;;;;19.18;34.96;101886.63;5146964;27;20039;-59
2022/04/02 09:11:22;;;;;;;1.02;0.80;;;;;;;19.19;35.02;101888.31;5146407;27;20020;-60
2022/04/02 09:13:50;;;;;;;0.63;0.60;;;;;;;19.19;35.18;101888.31;5147204;27;20054;-60
2022/04/02 09:16:53;;;;;;;0.90;0.80;;;;;;;19.22;35.19;101896.97;5146934;27;20067;-60
2022/04/02 09:19:29;;;;;;;1.48;0.70;;;;;;;19.24;35.00;101888.72;5146983;27;20030;-59
2022/04/02 09:21:54;;;;;;;1.00;0.75;;;;;;;19.26;34.87;101897.53;5147285;27;20047;-60
2022/04/02 09:25:11;;;;;;;1.02;0.65;;;;;;;19.29;34.91;101885.59;5146492;27;20026;-59
2022/04/02 09:28:10;;;;;;;0.60;0.60;;;;;;;19.32;34.96;101885.28;5043028;28;20130;-59
2022/04/02 09:30:50;;;;;;;0.60;0.60;;;;;;;19.32;34.89;101886.13;5042692;28;20045;-60
2022/04/02 09:33:37;;;;;;;1.83;0.70;;;;;;;19.35;34.95;101890.41;5042887;28;20818;-60
2022/04/02 09:36:17;;;;;;;0.57;0.57;;;;;;;19.38;34.66;101892.81;5042373;28;20096;-60
2022/04/02 09:39:04;;;;;;;0.95;0.70;;;;;;;19.40;34.71;101898.88;5042258;28;20033;-58
2022/04/02 09:41:38;;;;;;;0.52;0.52;;;;;;;19.40;34.79;101899.72;5025801;28;20030;-60
2022/04/02 09:44:29;;;;;;;0.70;0.70;;;;;;;19.42;34.91;101902.28;5042531;28;20041;-59
2022/04/02 09:47:04;;;;;;;0.60;0.60;;;;;;;19.37;34.97;101896.47;5043032;28;20041;-60
2022/04/02 09:50:00;;;;;;;0.70;0.63;;;;;;;19.45;35.04;101910.06;5042152;28;20048;-59
2022/04/02 09:52:26;;;;;;;0.82;0.70;;;;;;;19.43;34.76;101902.13;5042310;28;20061;-59
2022/04/02 09:55:03;;;;;;;1.00;0.70;;;;;;;19.43;34.85;101902.13;5041136;28;20037;-60
2022/04/02 09:57:50;;;;;;;0.65;0.60;;;;;;;19.46;34.58;101901.00;5042106;28;20048;-59
2022/04/02 10:00:16;;;;;;;1.05;0.63;;;;;;;19.43;34.65;101902.13;5039682;28;20064;-59
2022/04/02 10:03:01;;;;;;;0.82;0.73;;;;;;;19.47;34.61;101900.84;5070412;27;20030;-59
2022/04/02 10:05:41;;;;;;;0.70;0.70;;;;;;;19.48;34.50;101904.38;5136925;27;20039;-59
2022/04/02 10:08:16;;;;;;;0.50;0.50;;;;;;;19.49;34.45;101896.13;5145646;27;20030;-60
2022/04/02 10:10:43;;;;;;;1.17;0.70;;;;;;;19.49;34.61;101895.28;5126271;27;20022;-60
2022/04/02 10:13:08;;;;;;;0.60;0.60;;;;;;;19.51;34.77;101905.94;5127178;27;20027;-59
2022/04/02 10:15:36;;;;;;;0.82;0.70;;;;;;;19.53;34.74;101902.09;5145037;27;20031;-59
2022/04/02 10:18:03;;;;;;;1.05;0.60;;;;;;;19.54;34.66;101898.41;5127072;27;20042;-59
2022/04/02 10:20:29;;;;;;;0.60;0.60;;;;;;;19.56;34.71;101895.56;5145115;27;20015;-59
2022/04/02 10:23:12;;;;;;;1.00;0.75;;;;;;;19.59;34.66;101895.28;5139763;27;20023;-59
2022/04/02 10:25:54;;;;;;;1.00;0.60;;;;;;;19.60;34.33;101897.81;5118756;27;20066;-60
2022/04/02 10:28:21;;;;;;;0.90;0.68;;;;;;;19.59;34.42;101897.97;5125203;27;20057;-59
2022/04/02 10:30:49;;;;;;;0.60;0.60;;;;;;;19.60;34.46;101897.81;5126759;27;20023;-59
2022/04/02 10:33:26;;;;;;;0.88;0.60;;;;;;;19.58;34.70;101885.44;5121683;27;20102;-59
2022/04/02 10:35:53;;;;;;;1.60;0.60;;;;;;;19.60;34.69;101894.25;5127952;27;20500;-60
2022/04/02 10:38:32;;;;;;;0.63;0.63;;;;;;;19.62;34.44;101886.88;5145302;27;20027;-59
2022/04/02 10:40:57;;;;;;;2.38;0.60;;;;;;;19.61;34.60;101877.94;5144564;27;20019;-60
2022/04/02 10:43:27;;;;;;;0.93;0.60;;;;;;;19.66;34.77;101883.75;5126817;27;20030;-59
2022/04/02 10:45:52;;;;;;;1.85;0.70;;;;;;;19.66;34.66;101874.81;5144775;27;20046;-56
2022/04/02 10:48:26;;;;;;;0.68;0.68;;;;;;;19.73;34.52;101889.41;5139368;27;20030;-60
2022/04/02 10:50:54;;;;;;;0.55;0.55;;;;;;;19.77;34.41;101881.84;5144901;27;20082;-60
2022/04/02 10:53:20;;;;;;;0.73;0.60;;;;;;;19.78;34.37;101887.09;5141961;27;20046;-59
2022/04/02 10:55:47;;;;;;;0.77;0.50;;;;;;;19.85;34.65;101887.34;5125516;27;20027;-59
2022/04/02 10:58:13;;;;;;;0.82;0.60;;;;;;;19.88;34.52;101893.31;5127967;27;20055;-59
2022/04/02 11:00:45;;;;;;;1.10;0.80;;;;;;;19.95;34.54;101888.13;5124291;28;20031;-59
2022/04/02 11:03:17;;;;;;;0.90;0.70;;;;;;;19.98;34.33;101891.38;5124596;28;20070;-59
2022/04/02 11:05:42;;;;;;;1.23;0.90;;;;;;;20.00;34.60;101890.38;5111062;27;20019;-60
2022/04/02 11:08:12;;;;;;;2.08;1.15;;;;;;;20.05;34.44;101894.34;5144815;27;20088;-59
2022/04/02 11:10:38;;;;;;;1.42;0.88;;;;;;;20.08;34.50;101895.88;5125538;27;20023;-59
2022/04/02 11:13:05;;;;;;;1.95;1.33;;;;;;;20.10;34.52;101897.41;5142322;27;20023;-59
2022/04/02 11:15:39;;;;;;;2.20;0.93;;;;;;;20.14;34.62;101897.97;5144032;27;20042;-59
2022/04/02 11:18:04;;;;;;;1.98;1.15;;;;;;;20.14;34.68;101897.97;5121159;27;20022;-59
2022/04/02 11:20:31;;;;;;;1.42;0.93;;;;;;;20.16;34.64;101891.41;5141300;27;20068;-60
2022/04/02 11:23:08;;;;;;;1.58;0.95;;;;;;;20.20;34.37;101903.59;5141434;27;20026;-59
2022/04/02 11:25:36;;;;;;;1.15;1.00;;;;;;;20.18;34.58;101881.31;5137818;27;20099;-59
2022/04/02 11:28:04;;;;;;;2.10;1.00;;;;;;;20.21;34.51;101899.88;5139076;27;20464;-59
2022/04/02 11:30:31;;;;;;;2.13;0.98;;;;;;;20.23;34.45;101914.09;5144203;27;20115;-59
2022/04/02 11:33:08;;;;;;;1.63;1.00;;;;;;;20.26;34.57;101912.06;5144450;27;20025;-59